createdAt,value
2016-05-15T00:00:16.544Z,82.31
2016-05-15T00:01:16.358Z,82.03
2016-05-15T00:02:16.502Z,82.69
2016-05-15T00:03:16.488Z,82.59
2016-05-15T00:04:16.914Z,82.4
2016-05-15T00:05:16.449Z,82.17
2016-05-15T00:06:16.435Z,82.36
2016-05-15T00:07:16.407Z,82.74
2016-05-15T00:08:16.393Z,82.65
2016-05-15T00:09:16.379Z,82.55
2016-05-15T00:10:16.351Z,82.17
2016-05-15T00:11:16.355Z,82.27
2016-05-15T00:12:16.310Z,82.31
2016-05-15T00:13:16.313Z,83.16
2016-05-15T00:14:16.284Z,82.5
2016-05-15T00:15:16.271Z,82.31
2016-05-15T00:16:16.243Z,83.12
2016-05-15T00:17:16.261Z,82.84
2016-05-15T00:18:16.217Z,82.31
2016-05-15T00:19:16.626Z,82.5
2016-05-15T00:20:16.175Z,82.88
2016-05-15T00:21:16.178Z,82.4
2016-05-15T00:22:16.150Z,82.5
2016-05-15T00:23:16.136Z,83.16
2016-05-15T00:24:16.109Z,82.69
2016-05-15T00:25:16.080Z,82.88
2016-05-15T00:26:16.067Z,83.12
2016-05-15T00:27:16.053Z,82.65
2016-05-15T00:28:16.025Z,83.16
2016-05-15T00:29:16.012Z,82.88
2016-05-15T00:30:15.999Z,82.78
2016-05-15T00:31:15.971Z,82.97
2016-05-15T00:32:15.974Z,83.07
2016-05-15T00:33:15.945Z,82.97
2016-05-15T00:34:15.838Z,82.59
2016-05-15T00:35:15.904Z,82.97
2016-05-15T00:36:15.890Z,82.97
2016-05-15T00:37:15.705Z,83.07
2016-05-15T00:38:15.849Z,82.93
2016-05-15T00:39:15.835Z,83.03
2016-05-15T00:40:15.838Z,82.93
2016-05-15T00:41:15.795Z,83.12
2016-05-15T00:42:15.781Z,83.31
2016-05-15T00:43:15.753Z,82.74
2016-05-15T00:44:15.740Z,83.59
2016-05-15T00:45:15.727Z,83.03
2016-05-15T00:46:15.933Z,83.12
2016-05-15T00:47:15.686Z,83.12
2016-05-15T00:48:15.673Z,83.4
2016-05-15T00:49:15.503Z,83.22
2016-05-15T00:50:15.632Z,83.22
2016-05-15T00:51:15.618Z,83.59
2016-05-15T00:52:15.606Z,83.5
2016-05-15T00:53:15.577Z,83.59
2016-05-15T00:54:15.970Z,83.88
2016-05-15T00:55:15.550Z,83.4
2016-05-15T00:56:15.381Z,83.5
2016-05-15T00:57:15.509Z,83.5
2016-05-15T00:58:15.481Z,84.07
2016-05-15T00:59:15.499Z,83.97
2016-05-15T01:00:15.455Z,83.69
2016-05-15T01:01:15.442Z,83.69
2016-05-15T01:02:15.413Z,83.78
2016-05-15T01:03:15.400Z,83.88
2016-05-15T01:04:15.388Z,83.97
2016-05-15T01:05:15.219Z,84.55
2016-05-15T01:06:15.346Z,84.45
2016-05-15T01:07:15.333Z,84.17
2016-05-15T01:08:15.164Z,84.17
2016-05-15T01:09:15.135Z,84.07
2016-05-15T01:10:15.279Z,84.17
2016-05-15T01:11:15.251Z,84.45
2016-05-15T01:12:15.238Z,84.45
2016-05-15T01:13:15.224Z,84.26
2016-05-15T01:14:15.212Z,84.74
2016-05-15T01:15:15.198Z,84.64
2016-05-15T01:16:15.014Z,84.55
2016-05-15T01:17:15.157Z,84.17
2016-05-15T01:18:15.144Z,84.36
2016-05-15T01:19:15.131Z,84.74
2016-05-15T01:20:14.931Z,84.83
2016-05-15T01:21:14.917Z,84.17
2016-05-15T01:22:14.906Z,84.17
2016-05-15T01:23:15.033Z,84.64
2016-05-15T01:24:15.020Z,85.02
2016-05-15T01:25:15.006Z,85.02
2016-05-15T01:26:14.837Z,85.11
2016-05-15T01:27:14.965Z,85.02
2016-05-15T01:28:14.796Z,85.02
2016-05-15T01:29:14.939Z,85.02
2016-05-15T01:30:14.755Z,84.92
2016-05-15T01:31:14.913Z,85.3
2016-05-15T01:32:14.713Z,85.4
2016-05-15T01:33:14.841Z,85.3
2016-05-15T01:34:14.688Z,85.4
2016-05-15T01:35:14.815Z,85.4
2016-05-15T01:36:14.802Z,85.4
2016-05-15T01:37:14.789Z,85.49
2016-05-15T01:38:14.760Z,85.59
2016-05-15T01:39:14.747Z,85.87
2016-05-15T01:40:14.719Z,85.59
2016-05-15T01:41:14.549Z,85.4
2016-05-15T01:42:14.677Z,85.59
2016-05-15T01:43:14.664Z,85.49
2016-05-15T01:44:14.651Z,86.16
2016-05-15T01:45:14.638Z,86.16
2016-05-15T01:46:14.625Z,86.25
2016-05-15T01:47:14.597Z,85.68
2016-05-15T01:48:14.584Z,86.16
2016-05-15T01:49:14.884Z,86.07
2016-05-15T01:50:14.559Z,86.35
2016-05-15T01:51:14.514Z,86.16
2016-05-15T01:52:14.501Z,86.07
2016-05-15T01:53:14.472Z,86.07
2016-05-15T01:54:14.476Z,86.07
2016-05-15T01:55:14.447Z,85.87
2016-05-15T01:56:14.450Z,86.25
2016-05-15T01:57:14.420Z,86.25
2016-05-15T01:58:14.423Z,86.35
2016-05-15T01:59:14.364Z,86.25
2016-05-15T02:00:14.350Z,86.16
2016-05-15T02:01:14.322Z,86.35
2016-05-15T02:02:14.309Z,85.97
2016-05-15T02:03:14.297Z,86.07
2016-05-15T02:04:14.408Z,85.59
2016-05-15T02:05:14.255Z,85.97
2016-05-15T02:06:14.241Z,85.68
2016-05-15T02:07:14.244Z,85.78
2016-05-15T02:08:14.200Z,85.49
2016-05-15T02:09:14.187Z,85.59
2016-05-15T02:10:14.191Z,85.4
2016-05-15T02:11:14.349Z,85.49
2016-05-15T02:12:14.149Z,85.4
2016-05-15T02:13:14.120Z,85.3
2016-05-15T02:14:14.092Z,86.07
2016-05-15T02:15:14.079Z,85.87
2016-05-15T02:16:14.065Z,85.3
2016-05-15T02:17:14.054Z,86.25
2016-05-15T02:18:14.024Z,85.78
2016-05-15T02:19:13.995Z,85.97
2016-05-15T02:20:13.999Z,85.97
2016-05-15T02:21:13.970Z,85.97
2016-05-15T02:22:13.942Z,85.68
2016-05-15T02:23:13.928Z,86.07
2016-05-15T02:24:13.931Z,85.87
2016-05-15T02:25:13.903Z,85.59
2016-05-15T02:26:13.873Z,85.97
2016-05-15T02:27:13.845Z,85.59
2016-05-15T02:28:13.833Z,86.25
2016-05-15T02:29:13.820Z,85.68
2016-05-15T02:30:13.791Z,86.63
2016-05-15T02:31:13.778Z,87.01
2016-05-15T02:32:13.780Z,86.82
2016-05-15T02:33:13.753Z,86.16
2016-05-15T02:34:14.161Z,86.35
2016-05-15T02:35:13.694Z,86.44
2016-05-15T02:36:13.697Z,86.07
2016-05-15T02:37:13.669Z,86.72
2016-05-15T02:38:13.641Z,86.91
2016-05-15T02:39:13.643Z,86.25
2016-05-15T02:40:13.615Z,86.63
2016-05-15T02:41:13.789Z,86.63
2016-05-15T02:42:13.588Z,86.07
2016-05-15T02:43:13.560Z,86.35
2016-05-15T02:44:13.547Z,86.63
2016-05-15T02:45:13.519Z,86.35
2016-05-15T02:46:13.709Z,86.82
2016-05-15T02:47:13.493Z,86.72
2016-05-15T02:48:13.464Z,86.91
2016-05-15T02:49:13.295Z,86.91
2016-05-15T02:50:13.423Z,87.49
2016-05-15T02:51:13.409Z,87.2
2016-05-15T02:52:13.241Z,86.44
2016-05-15T02:53:13.368Z,86.54
2016-05-15T02:54:13.355Z,86.82
2016-05-15T02:55:13.326Z,86.54
2016-05-15T02:56:13.314Z,86.54
2016-05-15T02:57:13.301Z,86.44
2016-05-15T02:58:13.288Z,86.72
2016-05-15T02:59:13.260Z,86.82
2016-05-15T03:00:13.247Z,87.2
2016-05-15T03:01:13.217Z,87.11
2016-05-15T03:02:13.205Z,86.91
2016-05-15T03:03:13.192Z,87.58
2016-05-15T03:04:13.632Z,87.73
2016-05-15T03:05:12.994Z,87.49
2016-05-15T03:06:13.138Z,87.39
2016-05-15T03:07:13.109Z,86.87
2016-05-15T03:08:13.096Z,87.01
2016-05-15T03:09:13.083Z,87.3
2016-05-15T03:10:13.055Z,87.49
2016-05-15T03:11:13.041Z,87.49
2016-05-15T03:12:13.013Z,86.82
2016-05-15T03:13:13.016Z,86.82
2016-05-15T03:14:12.988Z,87.11
2016-05-15T03:15:12.974Z,86.82
2016-05-15T03:16:13.008Z,87.11
2016-05-15T03:17:12.965Z,87.01
2016-05-15T03:18:12.920Z,86.82
2016-05-15T03:19:12.751Z,87.58
2016-05-15T03:20:12.893Z,86.91
2016-05-15T03:21:12.866Z,86.72
2016-05-15T03:22:12.853Z,86.91
2016-05-15T03:23:12.808Z,86.91
2016-05-15T03:24:12.796Z,86.91
2016-05-15T03:25:12.782Z,86.82
2016-05-15T03:26:12.769Z,86.91
2016-05-15T03:27:12.742Z,86.82
2016-05-15T03:28:12.728Z,86.16
2016-05-15T03:29:12.700Z,87.11
2016-05-15T03:30:12.530Z,87.01
2016-05-15T03:31:12.673Z,87.3
2016-05-15T03:32:12.645Z,87.01
2016-05-15T03:33:12.632Z,86.16
2016-05-15T03:34:12.463Z,87.11
2016-05-15T03:35:12.606Z,86.25
2016-05-15T03:36:12.578Z,86.16
2016-05-15T03:37:12.549Z,87.01
2016-05-15T03:38:12.536Z,87.11
2016-05-15T03:39:12.524Z,86.72
2016-05-15T03:40:12.510Z,86.44
2016-05-15T03:41:12.482Z,86.91
2016-05-15T03:42:12.469Z,87.01
2016-05-15T03:43:12.285Z,86.82
2016-05-15T03:44:12.427Z,87.01
2016-05-15T03:45:12.257Z,87.2
2016-05-15T03:46:12.402Z,86.91
2016-05-15T03:47:12.373Z,87.11
2016-05-15T03:48:12.359Z,87.11
2016-05-15T03:49:12.441Z,86.91
2016-05-15T03:50:12.319Z,87.49
2016-05-15T03:51:12.306Z,87.39
2016-05-15T03:52:12.276Z,87.3
2016-05-15T03:53:12.265Z,87.77
2016-05-15T03:54:12.251Z,87.3
2016-05-15T03:55:12.237Z,87.49
2016-05-15T03:56:12.210Z,86.72
2016-05-15T03:57:12.197Z,86.72
2016-05-15T03:58:12.168Z,87.01
2016-05-15T03:59:12.155Z,87.77
2016-05-15T04:00:12.142Z,87.2
2016-05-15T04:01:12.129Z,87.39
2016-05-15T04:02:11.944Z,87.39
2016-05-15T04:03:12.088Z,87.2
2016-05-15T04:04:12.512Z,87.49
2016-05-15T04:05:12.047Z,86.91
2016-05-15T04:06:12.033Z,87.11
2016-05-15T04:07:12.005Z,87.3
2016-05-15T04:08:11.992Z,87.39
2016-05-15T04:09:11.979Z,87.3
2016-05-15T04:10:11.966Z,87.58
2016-05-15T04:11:11.938Z,87.01
2016-05-15T04:12:11.769Z,86.72
2016-05-15T04:13:11.896Z,87.2
2016-05-15T04:14:11.882Z,87.3
2016-05-15T04:15:11.871Z,87.77
2016-05-15T04:16:11.685Z,86.82
2016-05-15T04:17:11.828Z,86.72
2016-05-15T04:18:11.800Z,86.91
2016-05-15T04:19:11.787Z,87.49
2016-05-15T04:20:11.774Z,87.3
2016-05-15T04:21:11.746Z,86.72
2016-05-15T04:22:11.749Z,86.91
2016-05-15T04:23:11.720Z,87.11
2016-05-15T04:24:11.690Z,87.39
2016-05-15T04:25:11.679Z,87.39
2016-05-15T04:26:11.665Z,87.39
2016-05-15T04:27:11.653Z,86.82
2016-05-15T04:28:11.639Z,87.3
2016-05-15T04:29:11.611Z,87.49
2016-05-15T04:30:11.582Z,87.2
2016-05-15T04:31:11.569Z,87.2
2016-05-15T04:32:11.587Z,87.01
2016-05-15T04:33:11.528Z,87.49
2016-05-15T04:34:11.547Z,86.72
2016-05-15T04:35:11.502Z,87.11
2016-05-15T04:36:11.473Z,86.72
2016-05-15T04:37:11.461Z,86.72
2016-05-15T04:38:11.432Z,86.82
2016-05-15T04:39:11.435Z,86.35
2016-05-15T04:40:11.406Z,86.44
2016-05-15T04:41:11.393Z,85.97
2016-05-15T04:42:11.364Z,86.54
2016-05-15T04:43:11.352Z,86.01
2016-05-15T04:44:11.323Z,86.2
2016-05-15T04:45:11.310Z,86.3
2016-05-15T04:46:11.499Z,86.2
2016-05-15T04:47:11.269Z,86.11
2016-05-15T04:48:11.255Z,86.11
2016-05-15T04:49:11.243Z,86.2
2016-05-15T04:50:11.230Z,86.01
2016-05-15T04:51:11.201Z,85.53
2016-05-15T04:52:11.188Z,86.2
2016-05-15T04:53:11.160Z,85.82
2016-05-15T04:54:11.162Z,86.01
2016-05-15T04:55:11.118Z,86.01
2016-05-15T04:56:11.106Z,85.44
2016-05-15T04:57:11.093Z,85.44
2016-05-15T04:58:11.079Z,85.72
2016-05-15T04:59:11.067Z,85.06
2016-05-15T05:00:11.037Z,85.06
2016-05-15T05:01:11.025Z,85.53
2016-05-15T05:02:11.012Z,85.16
2016-05-15T05:03:10.983Z,85.16
2016-05-15T05:04:10.987Z,84.68
2016-05-15T05:05:10.958Z,84.97
2016-05-15T05:06:10.944Z,84.97
2016-05-15T05:07:10.917Z,85.63
2016-05-15T05:08:10.903Z,85.06
2016-05-15T05:09:10.890Z,85.16
2016-05-15T05:10:10.862Z,84.87
2016-05-15T05:11:10.849Z,84.25
2016-05-15T05:12:10.836Z,84.59
2016-05-15T05:13:10.651Z,84.82
2016-05-15T05:14:10.794Z,84.06
2016-05-15T05:15:10.782Z,84.34
2016-05-15T05:16:10.768Z,84.06
2016-05-15T05:17:10.740Z,83.3
2016-05-15T05:18:10.727Z,83.78
2016-05-15T05:19:10.699Z,83.68
2016-05-15T05:20:10.685Z,83.68
2016-05-15T05:21:10.673Z,83.3
2016-05-15T05:22:10.644Z,83.3
2016-05-15T05:23:10.646Z,83.68
2016-05-15T05:24:10.462Z,83.2
2016-05-15T05:25:10.604Z,83.01
2016-05-15T05:26:10.593Z,83.11
2016-05-15T05:27:10.579Z,82.82
2016-05-15T05:28:10.394Z,82.73
2016-05-15T05:29:10.538Z,82.16
2016-05-15T05:30:10.509Z,81.49
2016-05-15T05:31:10.495Z,81.25
2016-05-15T05:32:10.483Z,81.44
2016-05-15T05:33:10.456Z,81.25
2016-05-15T05:34:10.614Z,81.25
2016-05-15T05:35:10.428Z,81.3
2016-05-15T05:36:10.417Z,81.06
2016-05-15T05:37:10.231Z,81.35
2016-05-15T05:38:10.374Z,81.12
2016-05-15T05:39:10.377Z,80.96
2016-05-15T05:40:10.349Z,81.59
2016-05-15T05:41:10.320Z,81.82
2016-05-15T05:42:10.307Z,81.35
2016-05-15T05:43:10.138Z,80.96
2016-05-15T05:44:10.281Z,80.96
2016-05-15T05:45:10.283Z,80.87
2016-05-15T05:46:10.240Z,80.4
2016-05-15T05:47:10.227Z,80.96
2016-05-15T05:48:10.214Z,80.96
2016-05-15T05:49:10.888Z,81.16
2016-05-15T05:50:10.188Z,80.77
2016-05-15T05:51:10.160Z,80.87
2016-05-15T05:52:10.146Z,80.77
2016-05-15T05:53:10.134Z,80.58
2016-05-15T05:54:10.121Z,80.3
2016-05-15T05:55:10.092Z,80.49
2016-05-15T05:56:10.079Z,80.58
2016-05-15T05:57:10.082Z,80.3
2016-05-15T05:58:10.037Z,80.4
2016-05-15T05:59:10.025Z,80.58
2016-05-15T06:00:10.011Z,80.49
2016-05-15T06:01:09.999Z,80.4
2016-05-15T06:02:09.814Z,80.4
2016-05-15T06:03:09.973Z,80.11
2016-05-15T06:04:10.164Z,80.68
2016-05-15T06:05:09.931Z,80.21
2016-05-15T06:06:09.903Z,79.83
2016-05-15T06:07:09.734Z,80.11
2016-05-15T06:08:09.720Z,80.4
2016-05-15T06:09:09.864Z,80.87
2016-05-15T06:10:09.835Z,80.58
2016-05-15T06:11:09.823Z,80.49
2016-05-15T06:12:09.810Z,79.73
2016-05-15T06:13:09.797Z,80.11
2016-05-15T06:14:09.783Z,80.02
2016-05-15T06:15:09.755Z,80.21
2016-05-15T06:16:09.742Z,80.4
2016-05-15T06:17:09.729Z,80.58
2016-05-15T06:18:09.717Z,80.21
2016-05-15T06:19:09.719Z,79.92
2016-05-15T06:20:09.690Z,80.21
2016-05-15T06:21:09.522Z,79.44
2016-05-15T06:22:09.649Z,79.35
2016-05-15T06:23:09.635Z,79.35
2016-05-15T06:24:09.623Z,80.02
2016-05-15T06:25:09.595Z,80.11
2016-05-15T06:26:09.582Z,80.21
2016-05-15T06:27:09.568Z,80.21
2016-05-15T06:28:09.556Z,80.21
2016-05-15T06:29:09.543Z,80.11
2016-05-15T06:30:09.514Z,80.77
2016-05-15T06:31:09.517Z,81.16
2016-05-15T06:32:09.489Z,80.96
2016-05-15T06:33:09.460Z,81.16
2016-05-15T06:34:09.697Z,80.96
2016-05-15T06:35:09.278Z,81.54
2016-05-15T06:36:09.421Z,81.63
2016-05-15T06:37:09.252Z,82.01
2016-05-15T06:38:09.395Z,81.54
2016-05-15T06:39:09.366Z,82.2
2016-05-15T06:40:09.354Z,82.58
2016-05-15T06:41:09.341Z,82.01
2016-05-15T06:42:09.327Z,82.1
2016-05-15T06:43:09.300Z,82.01
2016-05-15T06:44:09.286Z,81.73
2016-05-15T06:45:09.289Z,80.96
2016-05-15T06:46:09.463Z,81.63
2016-05-15T06:47:09.295Z,82.2
2016-05-15T06:48:09.219Z,81.44
2016-05-15T06:49:09.580Z,82.2
2016-05-15T06:50:09.194Z,82.01
2016-05-15T06:51:09.165Z,81.82
2016-05-15T06:52:09.167Z,81.48
2016-05-15T06:53:09.138Z,81.96
2016-05-15T06:54:09.126Z,82.15
2016-05-15T06:55:09.113Z,81.1
2016-05-15T06:56:09.099Z,80.44
2016-05-15T06:57:09.071Z,80.44
2016-05-15T06:58:08.902Z,80.44
2016-05-15T06:59:09.045Z,80.82
2016-05-15T07:00:09.032Z,81.01
2016-05-15T07:01:09.020Z,79.58
2016-05-15T07:02:08.991Z,78.34
2016-05-15T07:03:09.009Z,79.77
2016-05-15T07:04:08.981Z,79.58
2016-05-15T07:05:08.953Z,79.96
2016-05-15T07:06:08.939Z,79.77
2016-05-15T07:07:08.769Z,79.49
2016-05-15T07:08:08.742Z,77.3
2016-05-15T07:09:08.884Z,78.06
2016-05-15T07:10:08.872Z,77.39
2016-05-15T07:11:08.858Z,77.49
2016-05-15T07:12:08.831Z,76.48
2016-05-15T07:13:08.833Z,77.2
2016-05-15T07:14:08.819Z,76.16
2016-05-15T07:15:08.792Z,76.35
2016-05-15T07:16:08.778Z,76.82
2016-05-15T07:17:08.766Z,78.25
2016-05-15T07:18:08.597Z,78.06
2016-05-15T07:19:08.740Z,79.01
2016-05-15T07:20:08.711Z,79.3
2016-05-15T07:21:08.698Z,79.58
2016-05-15T07:22:08.685Z,80.82
2016-05-15T07:23:08.672Z,81.58
2016-05-15T07:24:08.660Z,81.1
2016-05-15T07:25:08.631Z,80.63
2016-05-15T07:26:08.618Z,80.44
2016-05-15T07:27:08.605Z,81.2
2016-05-15T07:28:08.592Z,80.44
2016-05-15T07:29:08.579Z,80.82
2016-05-15T07:30:08.566Z,81.67
2016-05-15T07:31:08.538Z,81.96
2016-05-15T07:32:08.525Z,81.48
2016-05-15T07:33:08.512Z,81.2
2016-05-15T07:34:09.077Z,80.3
2016-05-15T07:35:08.486Z,81.44
2016-05-15T07:36:08.456Z,81.35
2016-05-15T07:37:08.460Z,80.21
2016-05-15T07:38:08.431Z,81.06
2016-05-15T07:39:08.439Z,81.82
2016-05-15T07:40:08.469Z,82.49
2016-05-15T07:41:08.500Z,82.2
2016-05-15T07:42:08.514Z,82.49
2016-05-15T07:43:08.544Z,80.68
2016-05-15T07:44:08.563Z,80.15
2016-05-15T07:45:08.565Z,81.48
2016-05-15T07:46:08.553Z,81.67
2016-05-15T07:47:08.571Z,81.67
2016-05-15T07:48:08.558Z,80.82
2016-05-15T07:49:08.650Z,79.49
2016-05-15T07:50:08.548Z,77.58
2016-05-15T07:51:08.541Z,78.16
2016-05-15T07:52:08.533Z,77.58
2016-05-15T07:53:21.089Z,75.78
2016-05-15T07:54:08.501Z,75.34
2016-05-15T07:55:08.490Z,74.29
2016-05-15T07:56:08.479Z,73.57
2016-05-15T07:57:08.467Z,69.48
2016-05-15T07:58:08.457Z,68.15
2016-05-15T07:59:08.430Z,65.83
2016-05-15T08:00:08.434Z,63.8
2016-05-15T08:01:08.249Z,60.81
2016-05-15T08:02:08.408Z,58.07
2016-05-15T08:03:08.240Z,57.04
2016-05-15T08:04:08.243Z,57.81
2016-05-15T08:05:08.371Z,56.79
2016-05-15T08:06:08.359Z,52.99
2016-05-15T08:07:08.347Z,51.39
2016-05-15T08:08:08.335Z,53.02
2016-05-15T08:09:08.368Z,56.4
2016-05-15T08:10:08.325Z,58.45
2016-05-15T08:11:08.311Z,60.14
2016-05-15T08:12:08.298Z,62.02
2016-05-15T08:13:08.285Z,62.27
2016-05-15T08:14:08.288Z,61.51
2016-05-15T08:15:08.104Z,61.6
2016-05-15T08:16:08.277Z,61.96
2016-05-15T08:17:08.249Z,60.08
2016-05-15T08:18:08.237Z,62.78
2016-05-15T08:19:08.176Z,61.73
2016-05-15T08:20:08.210Z,59.63
2016-05-15T08:21:08.213Z,57.65
2016-05-15T08:22:08.201Z,58.9
2016-05-15T08:23:08.203Z,58.87
2016-05-15T08:24:08.315Z,58.97
2016-05-15T08:25:08.177Z,60.58
2016-05-15T08:26:08.164Z,61.99
2016-05-15T08:27:08.151Z,64.34
2016-05-15T08:28:07.981Z,65.2
2016-05-15T08:29:08.126Z,66.53
2016-05-15T08:30:08.112Z,65.1
2016-05-15T08:31:08.130Z,64.53
2016-05-15T08:32:08.102Z,61.89
2016-05-15T08:33:08.089Z,62.84
2016-05-15T08:34:07.936Z,61.04
2016-05-15T08:35:07.907Z,61.99
2016-05-15T08:36:08.051Z,62.75
2016-05-15T08:37:08.069Z,60.65
2016-05-15T08:38:08.040Z,59.99
2016-05-15T08:39:08.012Z,62.05
2016-05-15T08:40:08.014Z,62.52
2016-05-15T08:41:08.001Z,63.48
2016-05-15T08:42:07.832Z,63.86
2016-05-15T08:43:07.975Z,64.34
2016-05-15T08:44:07.963Z,64.05
2016-05-15T08:45:07.949Z,63.29
2016-05-15T08:46:08.140Z,62.34
2016-05-15T08:47:07.924Z,62.24
2016-05-15T08:48:07.770Z,61.67
2016-05-15T08:49:07.757Z,62.12
2016-05-15T08:50:07.901Z,62.68
2016-05-15T08:51:07.904Z,63.92
2016-05-15T08:52:07.874Z,64.02
2016-05-15T08:53:07.862Z,64.78
2016-05-15T08:54:07.848Z,61.93
2016-05-15T08:55:07.851Z,60.69
2016-05-15T08:56:07.823Z,60.69
2016-05-15T08:57:07.826Z,60.02
2016-05-15T08:58:07.797Z,60.59
2016-05-15T08:59:07.628Z,61.29
2016-05-15T09:00:07.787Z,61.1
2016-05-15T09:01:07.758Z,61.67
2016-05-15T09:02:07.745Z,61.19
2016-05-15T09:03:07.733Z,60.84
2016-05-15T09:04:07.735Z,60.65
2016-05-15T09:05:07.707Z,59.7
2016-05-15T09:06:07.709Z,59.89
2016-05-15T09:07:07.696Z,61.99
2016-05-15T09:08:07.683Z,60.65
2016-05-15T09:09:07.669Z,62.08
2016-05-15T09:10:07.657Z,61.41
2016-05-15T09:11:07.645Z,59.82
2016-05-15T09:12:07.632Z,60.11
2016-05-15T09:13:07.462Z,60.08
2016-05-15T09:14:07.622Z,61.99
2016-05-15T09:15:07.452Z,62.56
2016-05-15T09:16:07.595Z,64.43
2016-05-15T09:17:07.582Z,64.81
2016-05-15T09:18:07.570Z,65.73
2016-05-15T09:19:07.557Z,66.69
2016-05-15T09:20:07.684Z,65.64
2016-05-15T09:21:07.531Z,65.64
2016-05-15T09:22:07.517Z,66.78
2016-05-15T09:23:07.521Z,67.26
2016-05-15T09:24:07.507Z,65.64
2016-05-15T09:25:07.338Z,65.29
2016-05-15T09:26:07.482Z,64.62
2016-05-15T09:27:07.484Z,66.63
2016-05-15T09:28:07.456Z,65.67
2016-05-15T09:29:07.443Z,65
2016-05-15T09:30:07.445Z,64.18
2016-05-15T09:31:07.433Z,63.13
2016-05-15T09:32:07.420Z,63.13
2016-05-15T09:33:07.250Z,62.08
2016-05-15T09:34:07.237Z,61.89
2016-05-15T09:35:07.709Z,63.39
2016-05-15T09:36:07.367Z,64.24
2016-05-15T09:37:07.355Z,62.81
2016-05-15T09:38:07.186Z,63.1
2016-05-15T09:39:07.330Z,64.18
2016-05-15T09:40:07.332Z,61.89
2016-05-15T09:41:07.303Z,61.86
2016-05-15T09:42:07.306Z,62.27
2016-05-15T09:43:07.277Z,61.67
2016-05-15T09:44:07.280Z,63.04
2016-05-15T09:45:07.266Z,61.51
2016-05-15T09:46:07.255Z,61.6
2016-05-15T09:47:07.241Z,60.94
2016-05-15T09:48:07.229Z,62.56
2016-05-15T09:49:07.231Z,60.24
2016-05-15T09:50:07.046Z,58.75
2016-05-15T09:51:07.190Z,57.6
2016-05-15T09:52:07.193Z,57.12
2016-05-15T09:53:07.179Z,56.26
2016-05-15T09:54:07.166Z,55.41
2016-05-15T09:55:07.153Z,54.38
2016-05-15T09:56:07.140Z,53.72
2016-05-15T09:57:07.128Z,53.81
2016-05-15T09:58:07.114Z,54.48
2016-05-15T09:59:07.102Z,55.91
2016-05-15T10:00:07.089Z,54.57
2016-05-15T10:01:07.092Z,53.24
2016-05-15T10:02:07.062Z,52.09
2016-05-15T10:03:07.050Z,52.19
2016-05-15T10:04:07.053Z,52.86
2016-05-15T10:05:07.461Z,50.69
2016-05-15T10:06:07.027Z,51.17
2016-05-15T10:07:07.014Z,50.78
2016-05-15T10:08:07.017Z,50.33
2016-05-15T10:09:07.003Z,47.39
2016-05-15T10:10:06.990Z,47.42
2016-05-15T10:11:06.836Z,45.22
2016-05-15T10:12:06.981Z,45.41
2016-05-15T10:13:06.983Z,47.39
2016-05-15T10:14:06.969Z,47.87
2016-05-15T10:15:06.958Z,47.03
2016-05-15T10:16:06.960Z,46.08
2016-05-15T10:17:06.947Z,48.85
2016-05-15T10:18:06.949Z,48.16
2016-05-15T10:19:06.938Z,48.35
2016-05-15T10:20:07.127Z,50.71
2016-05-15T10:21:06.943Z,50.81
2016-05-15T10:22:06.929Z,50.98
2016-05-15T10:23:06.931Z,52.69
2016-05-15T10:24:06.919Z,51.35
2016-05-15T10:25:06.906Z,51.43
2016-05-15T10:26:06.909Z,51.43
2016-05-15T10:27:06.895Z,50.98
2016-05-15T10:28:06.914Z,48.9
2016-05-15T10:29:06.901Z,48.18
2016-05-15T10:30:06.888Z,47.23
2016-05-15T10:31:06.734Z,47.8
2016-05-15T10:32:06.862Z,48.85
2016-05-15T10:33:06.865Z,48.47
2016-05-15T10:34:06.853Z,48.73
2016-05-15T10:35:06.839Z,49.28
2016-05-15T10:36:06.841Z,49.76
2016-05-15T10:37:06.829Z,50.33
2016-05-15T10:38:06.817Z,50.88
2016-05-15T10:39:06.819Z,53.08
2016-05-15T10:40:06.821Z,54.67
2016-05-15T10:41:06.637Z,56.77
2016-05-15T10:42:06.811Z,62.78
2016-05-15T10:43:06.783Z,63.89
2016-05-15T10:44:06.769Z,65.04
2016-05-15T10:45:06.757Z,66.63
2016-05-15T10:46:06.760Z,69.48
2016-05-15T10:47:06.747Z,67.96
2016-05-15T10:48:06.733Z,70.06
2016-05-15T10:49:06.736Z,71.39
2016-05-15T10:50:06.723Z,66.85
2016-05-15T10:51:06.711Z,65.83
2016-05-15T10:52:06.541Z,64.21
2016-05-15T10:53:06.699Z,62.27
2016-05-15T10:54:06.671Z,60.39
2016-05-15T10:55:06.673Z,59.78
2016-05-15T10:56:06.662Z,59.88
2016-05-15T10:57:06.679Z,61.57
2016-05-15T10:58:06.667Z,62.78
2016-05-15T10:59:06.637Z,63.26
2016-05-15T11:00:06.626Z,62.84
2016-05-15T11:01:06.628Z,62.75
2016-05-15T11:02:06.631Z,63.6
2016-05-15T11:03:06.617Z,64.05
2016-05-15T11:04:06.434Z,66.82
2016-05-15T11:05:06.419Z,67.64
2016-05-15T11:06:06.579Z,68.88
2016-05-15T11:07:06.566Z,67.74
2016-05-15T11:08:06.553Z,68.78
2016-05-15T11:09:06.539Z,68.82
2016-05-15T11:10:06.371Z,70.06
2016-05-15T11:11:06.530Z,69.39
2016-05-15T11:12:06.517Z,67.29
2016-05-15T11:13:06.488Z,67.48
2016-05-15T11:14:06.491Z,68.15
2016-05-15T11:15:06.462Z,66.47
2016-05-15T11:16:06.466Z,66.85
2016-05-15T11:17:06.452Z,64.12
2016-05-15T11:18:06.455Z,66.02
2016-05-15T11:19:06.441Z,65.07
2016-05-15T11:20:06.538Z,62.91
2016-05-15T11:21:06.416Z,63.54
2016-05-15T11:22:06.418Z,65.52
2016-05-15T11:23:06.405Z,65.89
2016-05-15T11:24:06.408Z,65.04
2016-05-15T11:25:06.395Z,63.99
2016-05-15T11:26:06.382Z,64.28
2016-05-15T11:27:06.370Z,64.21
2016-05-15T11:28:06.356Z,64.43
2016-05-15T11:29:06.359Z,63.03
2016-05-15T11:30:06.737Z,60.84
2016-05-15T11:31:06.334Z,62.11
2016-05-15T11:32:06.320Z,60.2
2016-05-15T11:33:06.323Z,58.1
2016-05-15T11:34:06.342Z,56.4
2016-05-15T11:35:06.313Z,57.59
2016-05-15T11:36:06.315Z,56.95
2016-05-15T11:37:06.553Z,54.75
2016-05-15T11:38:06.305Z,56.57
2016-05-15T11:39:06.308Z,55.26
2016-05-15T11:40:06.311Z,54.33
2016-05-15T11:41:06.126Z,53.02
2016-05-15T11:42:06.316Z,53.69
2016-05-15T11:43:06.288Z,49.69
2016-05-15T11:44:06.274Z,47.78
2016-05-15T11:45:06.278Z,48.83
2016-05-15T11:46:06.264Z,50.52
2016-05-15T11:47:06.283Z,53.75
2016-05-15T11:48:06.269Z,47.85
2016-05-15T11:49:06.272Z,48.18
2016-05-15T11:50:06.118Z,47.51
2016-05-15T11:51:06.278Z,45.69
2016-05-15T11:52:06.265Z,46.55
2016-05-15T11:53:06.252Z,46.46
2016-05-15T11:54:06.270Z,47.51
2016-05-15T11:55:06.257Z,46.17
2016-05-15T11:56:06.384Z,46.15
2016-05-15T11:57:06.263Z,47.85
2016-05-15T11:58:06.125Z,46.61
2016-05-15T11:59:06.268Z,47.27
2016-05-15T12:00:06.254Z,46.15
2016-05-15T12:01:06.242Z,45.76
2016-05-15T12:02:06.245Z,45.4
2016-05-15T12:03:06.263Z,44.93
2016-05-15T12:04:06.251Z,43.87
2016-05-15T12:05:06.237Z,42.94
2016-05-15T12:06:06.240Z,45
2016-05-15T12:07:06.242Z,45.31
2016-05-15T12:08:06.245Z,44.85
2016-05-15T12:09:06.233Z,44.83
2016-05-15T12:10:06.251Z,43.77
2016-05-15T12:11:06.222Z,45.09
2016-05-15T12:12:06.225Z,43.2
2016-05-15T12:13:06.259Z,45.31
2016-05-15T12:14:06.231Z,44.26
2016-05-15T12:15:06.217Z,42.84
2016-05-15T12:16:06.236Z,43.34
2016-05-15T12:17:06.222Z,44.18
2016-05-15T12:18:06.241Z,43.82
2016-05-15T12:19:06.212Z,43.82
2016-05-15T12:20:06.137Z,42.38
2016-05-15T12:21:06.062Z,43.94
2016-05-15T12:22:06.221Z,41.73
2016-05-15T12:23:06.224Z,40.89
2016-05-15T12:24:06.226Z,40.89
2016-05-15T12:25:06.213Z,39.83
2016-05-15T12:26:06.215Z,38.99
2016-05-15T12:27:06.219Z,37.91
2016-05-15T12:28:06.065Z,40.27
2016-05-15T12:29:06.224Z,40.56
2016-05-15T12:30:06.226Z,41.61
2016-05-15T12:31:06.073Z,42
2016-05-15T12:32:06.232Z,43.51
2016-05-15T12:33:06.219Z,45.98
2016-05-15T12:34:06.221Z,45.4
2016-05-15T12:35:06.881Z,46.05
2016-05-15T12:36:06.211Z,48.16
2016-05-15T12:37:06.214Z,46.98
2016-05-15T12:38:06.232Z,47.85
2016-05-15T12:39:06.204Z,47.85
2016-05-15T12:40:06.207Z,48.78
2016-05-15T12:41:06.053Z,48.78
2016-05-15T12:42:06.197Z,50.76
2016-05-15T12:43:06.214Z,52.55
2016-05-15T12:44:06.186Z,52.36
2016-05-15T12:45:06.188Z,53.13
2016-05-15T12:46:06.176Z,52.2
2016-05-15T12:47:06.366Z,51.34
2016-05-15T12:48:06.166Z,50.57
2016-05-15T12:49:06.012Z,49.33
2016-05-15T12:50:06.311Z,49.11
2016-05-15T12:51:06.158Z,47.78
2016-05-15T12:52:06.144Z,49.21
2016-05-15T12:53:06.147Z,48.52
2016-05-15T12:54:05.979Z,48.83
2016-05-15T12:55:06.122Z,46.53